La Fayette, IL (61449)

6:37 PM CDT on April 25, 2015 (GMT -0500)
Stark County News | | Change Station
CLOSE
Current Station
Personal Weather Station
Location: Toulon, IL
Elevation: 735 ft
Nearby Weather Stations

Elev 735 ft 41.09 °N, 89.86 °W | Updated 5 minutes ago

Overcast
Overcast
46.6 °F
Feels Like 43 °F
N
6.3
Wind Variable Wind from NE

Today
High -- | Low -- °F
--% Chance of Precip.
Yesterday
High -- | Low -- °F
Precip. -- in
6:06 AM 7:50 PM
Waxing Crescent, 50% visible
Pressure 29.73 in
Visibility 7.0 miles
Clouds Overcast 1100 ft
Windchill 43 °F
Dew Point 46 °F
Humidity 99%
Rainfall 1.23 in
Snow Depth Not available.
UV 0 out of 12
Pollen 1.00 out of 12
Air Quality Not available.
Flu Activity Regional
METAR KGBG 252315Z AUTO 04012G20KT 7SM OVC011 08/07 A2973 RMK AO2 T00810065

More Conditions Fewer Conditions

Pressure 29.73 in
Visibility 7.0 miles
Clouds Overcast 1100 ft
Windchill 43 °F
Dew Point 46 °F
Humidity 99%
Rainfall 1.23 in
Snow Depth Not available.
UV 0 out of 12
Pollen 1.00 out of 12
Air Quality Not available.
Flu Activity Regional
METAR KGBG 252315Z AUTO 04012G20KT 7SM OVC011 08/07 A2973 RMK AO2 T00810065

More Conditions Fewer Conditions

10-Day Weather Forecast

Almanac

Astronomy

Apr. 25, 2015 Rise Set
Actual Time
Civil Twilight
Nautical Twilight
Astronomical Twilight
Moon
Length of Visible Light
Length of Day
Tomorrow will be .
, % of the Moon is Illuminated

Today's Extremes

State Highs State Lows

Community

WunderPhotos

Upload Photos

1,816,845 photos uploaded!

WunderBlogs® & News

Nearby

Air Quality

  Air Quality AQ Index Pollutant
Not available.

Snow Depth

Station Depth Elevation

Earthquake Activity

City Distance Mag. Time & Date
Minimum magnitude displayed is 2.5.

Coastal Water Temperatures

Place Temperature

Stations

Nearby Weather Stations

Station Location Temp. Windchill Dew Point Humidity Wind Precip. Elev Updated Type